Time;durP1;ratioP1;P1;durP2;ratioP2;P2;SDS_P1;SDS_P2;PMS_P1;PMS_P2;Temp;Humidity;BMP_temperature;BMP_pressure;BME280_temperature;BME280_humidity;BME280_pressure;Samples;Min_cycle;Max_cycle;Signal;HPM_P1;HPM_P2
2023/12/16 00:02:08;;;;;;;0.20;0.10;;;;;;;29.21;56.25;103749.75;10472708;28;20132;-84
2023/12/16 00:07:10;;;;;;;0.98;0.20;;;;;;;28.36;58.79;103751.09;10468346;28;20128;-83
2023/12/16 00:12:12;;;;;;;0.20;0.20;;;;;;;28.53;57.39;103739.53;10442025;28;20163;-84
2023/12/16 00:17:15;;;;;;;0.00;0.00;;;;;;;27.90;57.26;103745.91;10438881;28;20156;-84
2023/12/16 00:22:16;;;;;;;0.50;0.50;;;;;;;28.26;57.27;103747.63;10437467;28;20741;-84
2023/12/16 00:27:18;;;;;;;0.05;0.03;;;;;;;28.03;57.37;103742.38;10425602;28;20444;-84
2023/12/16 00:32:20;;;;;;;0.45;0.25;;;;;;;27.64;57.11;103738.91;10445880;28;20053;-83
2023/12/16 00:37:22;;;;;;;0.10;0.10;;;;;;;26.98;57.88;103742.41;10419764;28;20068;-84
2023/12/16 00:42:24;;;;;;;0.80;0.57;;;;;;;26.63;58.37;103751.97;10457241;28;20049;-84
2023/12/16 00:47:26;;;;;;;0.22;0.22;;;;;;;29.31;55.15;103738.16;10438800;28;20068;-84
2023/12/16 00:52:28;;;;;;;1.90;1.25;;;;;;;28.25;56.70;103742.31;10446993;28;20056;-84
2023/12/16 00:57:29;;;;;;;0.43;0.35;;;;;;;27.46;56.53;103753.91;10452540;28;20128;-84
2023/12/16 01:02:31;;;;;;;0.73;0.68;;;;;;;26.67;57.39;103742.28;10420288;28;20042;-84
2023/12/16 01:07:33;;;;;;;0.17;0.17;;;;;;;26.38;57.02;103748.34;10443163;28;20051;-83
2023/12/16 01:12:35;;;;;;;0.55;0.20;;;;;;;27.81;57.30;103734.44;10456677;28;20044;-84
2023/12/16 01:17:37;;;;;;;0.00;0.00;;;;;;;25.85;57.66;103734.84;10458785;28;20045;-84
2023/12/16 01:22:39;;;;;;;0.95;0.85;;;;;;;26.10;58.16;103737.66;10455354;28;20055;-84
2023/12/16 01:27:42;;;;;;;0.25;0.05;;;;;;;28.76;54.87;103745.63;10452375;28;20041;-84
2023/12/16 01:32:44;;;;;;;10.13;1.75;;;;;;;27.54;57.47;103757.44;10460685;28;20053;-84
2023/12/16 01:37:46;;;;;;;1.55;0.82;;;;;;;28.55;57.16;103745.72;10452835;28;20049;-84
2023/12/16 01:42:48;;;;;;;0.25;0.17;;;;;;;27.78;56.83;103742.41;10441150;28;20135;-84
2023/12/16 01:47:50;;;;;;;0.17;0.17;;;;;;;27.04;57.37;103732.69;10456306;28;20099;-85
2023/12/16 01:52:53;;;;;;;0.15;0.13;;;;;;;26.14;59.11;103728.84;10443704;28;20041;-84
2023/12/16 01:57:56;;;;;;;1.17;0.73;;;;;;;27.28;58.20;103719.50;10447973;28;20132;-84
2023/12/16 02:02:58;;;;;;;0.52;0.28;;;;;;;27.28;57.97;103720.38;10422732;28;20045;-84
2023/12/16 02:07:59;;;;;;;0.98;0.45;;;;;;;25.54;61.01;103721.41;10441836;28;20036;-85
2023/12/16 02:13:02;;;;;;;13.35;0.65;;;;;;;26.91;58.77;103721.22;10448835;28;20053;-84
2023/12/16 02:18:04;;;;;;;0.25;0.13;;;;;;;26.27;59.79;103728.03;10439106;28;20049;-84
2023/12/16 02:23:14;;;;;;;1.17;0.05;;;;;;;27.15;58.83;103724.75;10464564;28;20135;-84
2023/12/16 02:28:16;;;;;;;0.63;0.22;;;;;;;26.07;59.08;103733.22;10452811;28;20045;-84
2023/12/16 02:33:18;;;;;;;0.08;0.08;;;;;;;27.61;57.43;103730.97;10447063;28;20084;-84
2023/12/16 02:38:20;;;;;;;0.98;0.30;;;;;;;26.22;59.06;103726.25;10442034;28;20052;-84
2023/12/16 02:43:22;;;;;;;3.55;0.20;;;;;;;27.00;58.49;103730.03;10458028;28;20127;-84
2023/12/16 02:48:24;;;;;;;0.25;0.20;;;;;;;26.40;58.56;103723.69;10439292;28;20412;-84
2023/12/16 02:53:27;;;;;;;0.22;0.20;;;;;;;26.85;58.87;103721.19;10428146;28;20045;-84
2023/12/16 02:58:29;;;;;;;0.17;0.17;;;;;;;27.06;57.32;103724.78;10435300;28;20056;-84
2023/12/16 03:03:31;;;;;;;1.55;0.47;;;;;;;25.88;59.62;103708.41;10451478;28;20713;-84
2023/12/16 03:08:37;;;;;;;0.32;0.32;;;;;;;25.55;60.48;103702.06;10446072;28;20448;-84
2023/12/16 03:13:39;;;;;;;0.13;0.13;;;;;;;25.72;59.53;103701.31;10444284;28;20075;-83
2023/12/16 03:18:41;;;;;;;0.30;0.30;;;;;;;24.64;60.64;103702.03;10444916;28;20041;-84
2023/12/16 03:23:43;;;;;;;0.28;0.20;;;;;;;25.21;60.03;103693.84;10460247;28;20053;-83
2023/12/16 03:28:45;;;;;;;0.10;0.10;;;;;;;24.78;60.28;103709.25;10446575;28;20052;-83
2023/12/16 03:33:47;;;;;;;0.38;0.32;;;;;;;26.52;58.28;103707.00;10453958;28;20052;-84
2023/12/16 03:38:51;;;;;;;0.65;0.43;;;;;;;25.98;59.20;103693.53;10440837;28;20431;-83
2023/12/16 03:43:52;;;;;;;0.40;0.17;;;;;;;24.11;60.59;103705.78;10451355;28;20041;-83
2023/12/16 03:48:54;;;;;;;0.90;0.73;;;;;;;23.99;61.02;103688.06;10476645;28;20049;-83
2023/12/16 03:53:56;;;;;;;0.70;0.65;;;;;;;25.52;60.02;103683.56;10451185;28;20047;-84
2023/12/16 03:58:58;;;;;;;0.00;0.00;;;;;;;25.46;60.68;103692.34;10442537;28;20041;-83
2023/12/16 04:03:59;;;;;;;2.50;1.67;;;;;;;24.75;60.04;103698.69;10443728;28;20053;-83
2023/12/16 04:09:01;;;;;;;0.43;0.35;;;;;;;24.90;60.94;103719.03;10445211;28;20067;-83
2023/12/16 04:14:03;;;;;;;0.75;0.30;;;;;;;26.04;59.40;103724.34;10441514;28;20041;-83
2023/12/16 04:19:05;;;;;;;0.10;0.10;;;;;;;26.09;58.90;103717.41;10445561;28;20055;-84
2023/12/16 04:24:07;;;;;;;6.20;0.52;;;;;;;24.48;60.49;103727.34;10437898;28;20050;-84
2023/12/16 04:29:09;;;;;;;0.63;0.30;;;;;;;24.84;60.51;103727.75;10450088;28;20131;-83
2023/12/16 04:34:10;;;;;;;0.20;0.20;;;;;;;25.47;59.30;103714.31;10452640;28;20407;-83
2023/12/16 04:39:12;;;;;;;0.55;0.38;;;;;;;25.97;59.43;103705.84;10427606;28;20070;-83
2023/12/16 04:44:14;;;;;;;0.40;0.38;;;;;;;25.11;59.27;103718.38;10441098;28;20492;-84
2023/12/16 04:49:16;;;;;;;0.20;0.20;;;;;;;26.50;58.29;103710.53;10430311;28;20121;-83
2023/12/16 04:54:18;;;;;;;0.10;0.10;;;;;;;26.09;59.65;103715.63;10462313;28;20056;-84
2023/12/16 04:59:20;;;;;;;0.10;0.10;;;;;;;26.63;57.42;103714.97;10446213;28;20065;-83
2023/12/16 05:04:22;;;;;;;0.20;0.20;;;;;;;25.05;59.93;103718.31;10441595;28;20487;-83
2023/12/16 05:09:24;;;;;;;0.28;0.10;;;;;;;26.11;59.60;103715.63;10442929;28;20041;-83
2023/12/16 05:14:26;;;;;;;0.45;0.35;;;;;;;25.38;61.10;103707.22;10446902;28;20052;-84
2023/12/16 05:19:28;;;;;;;16.77;0.57;;;;;;;24.54;60.91;103697.53;10436783;28;20049;-83
2023/12/16 05:24:30;;;;;;;0.00;0.00;;;;;;;25.68;61.10;103696.84;10460548;28;20043;-84
2023/12/16 05:29:31;;;;;;;0.15;0.08;;;;;;;24.97;61.12;103698.03;10429975;28;20045;-83
2023/12/16 05:34:33;;;;;;;0.52;0.35;;;;;;;25.22;59.09;103682.41;10438336;28;20103;-83
2023/12/16 05:39:35;;;;;;;0.20;0.20;;;;;;;24.96;61.04;103688.34;10450908;28;20086;-84
2023/12/16 05:44:37;;;;;;;0.43;0.38;;;;;;;25.05;59.66;103687.53;10457013;28;20492;-83
2023/12/16 05:49:39;;;;;;;0.15;0.10;;;;;;;24.43;60.67;103691.25;10450989;28;20049;-85
2023/12/16 05:54:41;;;;;;;0.00;0.00;;;;;;;25.34;59.19;103690.44;10448357;28;20080;-84
2023/12/16 05:59:43;;;;;;;0.25;0.20;;;;;;;23.83;60.92;103692.19;10449621;28;20136;-84
2023/12/16 06:04:45;;;;;;;0.50;0.40;;;;;;;24.65;61.49;103695.91;10456875;28;20791;-84
2023/12/16 06:09:46;;;;;;;0.00;0.00;;;;;;;24.85;60.57;103700.53;10441909;28;20052;-84
2023/12/16 06:14:48;;;;;;;0.75;0.32;;;;;;;25.70;59.47;103708.31;10462215;28;20053;-84
2023/12/16 06:19:50;;;;;;;1.15;0.43;;;;;;;25.29;58.84;103707.97;10447490;28;20124;-84
2023/12/16 06:24:51;;;;;;;1.40;0.70;;;;;;;24.76;60.88;103717.16;10450952;28;20040;-84
2023/12/16 06:29:53;;;;;;;1.23;0.22;;;;;;;26.01;59.84;103724.38;10442418;28;20550;-84
2023/12/16 06:34:55;;;;;;;9.52;0.95;;;;;;;26.35;58.56;103717.53;10449600;28;20081;-84
2023/12/16 06:39:57;;;;;;;0.15;0.13;;;;;;;25.81;60.52;103719.81;10449751;28;20040;-84
2023/12/16 06:45:02;;;;;;;0.08;0.08;;;;;;;23.14;61.85;103734.91;10482906;28;20013;-84
2023/12/16 06:50:05;;;;;;;0.30;0.00;;;;;;;25.29;60.46;103728.22;10441382;28;20079;-84
2023/12/16 06:55:07;;;;;;;0.20;0.20;;;;;;;23.70;61.73;103741.16;10448408;28;20045;-84
2023/12/16 07:00:09;;;;;;;0.00;0.00;;;;;;;25.62;61.08;103727.63;10452791;28;20044;-84
2023/12/16 07:05:11;;;;;;;0.20;0.15;;;;;;;24.85;59.99;103750.63;10441048;28;20124;-84
2023/12/16 07:10:13;;;;;;;0.00;0.00;;;;;;;25.96;60.36;103727.84;10443467;28;20048;-83
2023/12/16 07:15:16;;;;;;;1.40;0.57;;;;;;;25.73;60.52;103729.44;10439744;28;20067;-84
2023/12/16 07:20:17;;;;;;;0.30;0.30;;;;;;;24.37;60.70;103745.66;10431117;28;20569;-84
2023/12/16 07:25:19;;;;;;;0.95;0.75;;;;;;;26.10;59.97;103733.25;10432310;28;20049;-84
2023/12/16 07:30:21;;;;;;;6.25;0.40;;;;;;;24.77;60.74;103739.09;10443337;28;20041;-84
2023/12/16 07:35:24;;;;;;;0.20;0.20;;;;;;;25.11;61.96;103734.22;10444482;28;20072;-84
2023/12/16 07:40:25;;;;;;;0.95;0.45;;;;;;;23.35;66.54;103754.59;10430013;28;20480;-83
2023/12/16 07:45:27;;;;;;;0.98;0.22;;;;;;;26.51;59.95;103742.25;10457759;28;20046;-81
2023/12/16 07:50:29;;;;;;;0.90;0.38;;;;;;;24.89;61.88;103749.81;10435124;28;20511;-84
2023/12/16 07:55:31;;;;;;;1.42;1.33;;;;;;;24.66;63.08;103744.22;10434525;28;20420;-83
2023/12/16 08:00:34;;;;;;;0.20;0.20;;;;;;;25.19;61.61;103743.06;10440573;28;20500;-83
2023/12/16 08:05:36;;;;;;;7.43;0.28;;;;;;;24.31;63.33;103750.81;10428016;28;20053;-84
2023/12/16 08:10:38;;;;;;;1.13;0.32;;;;;;;24.68;63.50;103755.72;10447048;28;20451;-83
2023/12/16 08:15:40;;;;;;;0.52;0.30;;;;;;;25.32;64.20;103755.50;10434300;28;20045;-83
2023/12/16 08:20:41;;;;;;;0.30;0.08;;;;;;;24.79;64.99;103763.75;10443787;28;20041;-83
2023/12/16 08:25:43;;;;;;;0.40;0.32;;;;;;;25.55;61.89;103762.78;10452060;28;20044;-82
2023/12/16 08:30:46;;;;;;;0.43;0.20;;;;;;;24.12;64.54;103768.16;10449168;28;20052;-82
2023/12/16 08:35:48;;;;;;;1.75;0.40;;;;;;;22.44;67.15;103765.91;10443820;28;20037;-83
2023/12/16 08:40:53;;;;;;;11.60;1.55;;;;;;;22.40;66.37;103769.34;10453903;28;20057;-82
2023/12/16 08:45:54;;;;;;;0.10;0.10;;;;;;;23.21;68.20;103758.72;10450203;28;20167;-82
2023/12/16 08:50:57;;;;;;;0.00;0.00;;;;;;;25.00;65.69;103766.63;10447019;28;20037;-84
2023/12/16 08:55:59;;;;;;;1.75;1.38;;;;;;;24.33;64.65;103770.19;10449203;28;20124;-82
2023/12/16 09:01:01;;;;;;;4.85;0.45;;;;;;;24.15;67.74;103769.94;10433645;28;20501;-81
2023/12/16 09:06:03;;;;;;;0.30;0.30;;;;;;;24.10;67.46;103755.78;10447548;28;20045;-82
2023/12/16 09:11:05;;;;;;;1.35;0.95;;;;;;;25.64;65.63;103767.22;10455519;28;20041;-83
2023/12/16 09:16:07;;;;;;;0.10;0.10;;;;;;;25.17;66.11;103793.16;10456046;28;20076;-82
2023/12/16 09:21:08;;;;;;;0.75;0.68;;;;;;;26.51;64.20;103784.53;10445712;28;20041;-84
2023/12/16 09:26:10;;;;;;;0.10;0.10;;;;;;;24.73;64.53;103800.59;10443687;28;20497;-83
2023/12/16 09:31:12;;;;;;;0.17;0.13;;;;;;;27.09;64.56;103798.84;10438214;28;20044;-84
2023/12/16 09:36:14;;;;;;;0.80;0.47;;;;;;;26.80;63.68;103802.31;10458390;28;20075;-83
2023/12/16 09:41:24;;;;;;;0.40;0.40;;;;;;;26.71;65.58;103810.16;10462128;28;20048;-84
2023/12/16 09:46:30;;;;;;;0.13;0.13;;;;;;;26.35;67.44;103819.69;10454972;28;20059;-84
2023/12/16 09:51:32;;;;;;;2.90;1.25;;;;;;;24.89;69.19;103822.75;10428577;28;20094;-82
2023/12/16 09:56:36;;;;;;;0.15;0.15;;;;;;;25.30;68.88;103810.00;10446574;28;20041;-82
2023/12/16 10:01:37;;;;;;;1.20;1.10;;;;;;;25.67;68.54;103812.16;10449021;28;20497;-82
2023/12/16 10:06:39;;;;;;;0.68;0.52;;;;;;;25.35;70.50;103823.25;10431389;28;20060;-82
2023/12/16 10:11:41;;;;;;;10.63;0.73;;;;;;;24.38;71.65;103826.47;10439899;28;20474;-81
2023/12/16 10:16:47;;;;;;;0.10;0.10;;;;;;;25.62;69.48;103824.41;10446843;28;20045;-82
2023/12/16 10:21:49;;;;;;;2.38;0.85;;;;;;;25.22;69.39;103827.50;10457633;28;20041;-81
2023/12/16 10:26:52;;;;;;;1.48;0.30;;;;;;;25.62;71.17;103821.78;10446391;28;20404;-82
2023/12/16 10:31:54;;;;;;;1.92;0.63;;;;;;;25.19;72.32;103831.00;10446256;28;20041;-82
2023/12/16 10:37:06;;;;;;;3.67;1.45;;;;;;;25.84;70.76;103814.06;10429643;28;20134;-83
2023/12/16 10:42:08;;;;;;;1.45;0.90;;;;;;;26.24;70.22;103812.59;10451285;28;20044;-82
2023/12/16 10:47:16;;;;;;;1.63;0.95;;;;;;;25.90;70.60;103816.75;10452469;28;20127;-82
2023/12/16 10:52:19;;;;;;;3.85;0.63;;;;;;;24.98;73.36;103818.47;10454221;28;20064;-81
2023/12/16 10:57:46;;;;;;;0.38;0.38;;;;;;;24.16;75.20;103800.69;10437430;28;20040;-82
2023/12/16 11:03:02;;;;;;;0.65;0.35;;;;;;;27.53;71.00;103799.81;10470519;28;20115;-84
2023/12/16 11:08:05;;;;;;;2.28;0.57;;;;;;;25.99;74.19;103806.22;10451811;28;20127;-82
2023/12/16 11:13:07;;;;;;;2.95;1.02;;;;;;;26.79;73.08;103805.81;10448656;28;20051;-82
2023/12/16 11:18:16;;;;;;;2.42;1.42;;;;;;;26.45;72.83;103784.50;10445226;28;20037;-84
2023/12/16 11:23:18;;;;;;;0.52;0.30;;;;;;;26.05;73.45;103773.69;10438220;28;20045;-84
2023/12/16 11:28:20;;;;;;;1.55;0.43;;;;;;;26.20;73.50;103768.53;10443844;28;20072;-82
2023/12/16 11:33:22;;;;;;;0.60;0.47;;;;;;;26.56;72.67;103766.91;10442520;28;20041;-82
2023/12/16 11:38:47;;;;;;;0.08;0.08;;;;;;;26.63;72.17;103766.94;10454946;28;20099;-83
2023/12/16 11:43:52;;;;;;;1.48;0.75;;;;;;;25.54;76.83;103745.16;10467301;28;20075;-83
2023/12/16 11:48:54;;;;;;;3.20;0.28;;;;;;;25.90;74.30;103734.88;10446322;28;20037;-81
2023/12/16 11:53:57;;;;;;;4.78;0.43;;;;;;;26.25;73.57;103724.50;10453101;28;20488;-83
2023/12/16 11:59:03;;;;;;;2.25;1.40;;;;;;;27.49;71.60;103714.22;10460753;28;20041;-84
2023/12/16 12:04:06;;;;;;;0.63;0.38;;;;;;;27.69;71.95;103711.53;10446928;28;20051;-85
2023/12/16 12:09:08;;;;;;;0.90;0.38;;;;;;;26.96;73.33;103707.97;10427831;28;20060;-85
2023/12/16 12:14:10;;;;;;;2.70;0.77;;;;;;;26.87;74.53;103706.22;10448728;28;20045;-84
2023/12/16 12:19:12;;;;;;;4.07;1.08;;;;;;;26.22;76.31;103698.06;10441478;28;20037;-83
2023/12/16 12:24:14;;;;;;;0.95;0.80;;;;;;;28.02;74.53;103692.91;10429741;28;20140;-85
2023/12/16 12:29:16;;;;;;;1.65;0.43;;;;;;;25.39;76.76;103677.31;10434550;28;20488;-83
2023/12/16 12:34:19;;;;;;;7.32;2.13;;;;;;;26.11;77.92;103682.19;10425732;28;20041;-83
2023/12/16 12:39:21;;;;;;;2.40;1.20;;;;;;;27.06;75.13;103670.09;10430990;28;20045;-83
2023/12/16 12:44:23;;;;;;;1.10;0.63;;;;;;;26.81;75.68;103676.25;10455077;28;20055;-82
2023/12/16 12:49:32;;;;;;;0.93;0.55;;;;;;;28.39;74.10;103660.06;10437826;28;20047;-84
2023/12/16 12:54:44;;;;;;;0.47;0.32;;;;;;;27.33;74.56;103664.78;10443007;28;20041;-83
2023/12/16 12:59:45;;;;;;;0.60;0.52;;;;;;;27.46;75.45;103669.19;10443241;28;20049;-84
2023/12/16 13:05:04;;;;;;;6.38;2.38;;;;;;;27.55;75.07;103663.03;10446729;28;20037;-83
2023/12/16 13:10:06;;;;;;;0.40;0.32;;;;;;;27.57;76.32;103657.72;10443313;28;20044;-83
2023/12/16 13:15:09;;;;;;;0.20;0.20;;;;;;;26.77;76.13;103659.47;10458865;28;20411;-84
2023/12/16 13:20:12;;;;;;;1.10;1.00;;;;;;;28.17;74.71;103654.88;10443845;28;20500;-83
2023/12/16 13:25:15;;;;;;;0.55;0.55;;;;;;;27.80;76.05;103640.00;10456341;28;20147;-82
2023/12/16 13:30:18;;;;;;;15.77;0.70;;;;;;;25.91;79.62;103647.72;10441265;28;20553;-82
2023/12/16 13:35:20;;;;;;;0.45;0.45;;;;;;;27.78;80.02;103641.75;10459956;28;20049;-84
2023/12/16 13:40:22;;;;;;;0.38;0.30;;;;;;;27.77;77.48;103644.44;10453980;28;20076;-84
2023/12/16 13:45:24;;;;;;;1.75;0.60;;;;;;;27.69;79.18;103628.53;10443940;28;20044;-86
2023/12/16 13:50:26;;;;;;;0.57;0.50;;;;;;;27.89;79.57;103632.91;10441676;28;20053;-81
2023/12/16 13:55:27;;;;;;;1.67;0.88;;;;;;;27.58;78.96;103633.00;10427331;28;20045;-81
2023/12/16 14:00:29;;;;;;;0.38;0.35;;;;;;;28.48;77.81;103634.34;10451285;28;20041;-83
2023/12/16 14:05:31;;;;;;;1.17;0.47;;;;;;;26.57;81.34;103633.00;10443660;28;20072;-83
2023/12/16 14:10:35;;;;;;;0.32;0.20;;;;;;;28.38;77.59;103632.69;10470456;28;20093;-84
2023/12/16 14:15:37;;;;;;;0.60;0.55;;;;;;;28.18;76.43;103631.00;10451411;28;20053;-84
2023/12/16 14:20:39;;;;;;;0.55;0.52;;;;;;;26.54;79.88;103625.03;10436484;28;20136;-82
2023/12/16 14:25:41;;;;;;;0.43;0.20;;;;;;;27.45;79.80;103634.78;10463633;28;20060;-83
2023/12/16 14:30:42;;;;;;;0.28;0.28;;;;;;;27.82;78.15;103632.03;10447602;28;20133;-86
2023/12/16 14:35:44;;;;;;;1.17;0.65;;;;;;;27.74;79.73;103629.41;10440778;28;20053;-83
2023/12/16 14:40:46;;;;;;;0.20;0.10;;;;;;;26.67;80.43;103620.66;10418191;28;20056;-82
2023/12/16 14:45:48;;;;;;;1.58;0.77;;;;;;;27.95;80.85;103623.16;10447344;28;20045;-83
2023/12/16 14:50:50;;;;;;;1.02;0.68;;;;;;;27.54;80.45;103610.94;10442544;28;20132;-83
2023/12/16 14:55:54;;;;;;;1.27;0.65;;;;;;;27.33;82.04;103606.53;10462628;28;20049;-84
2023/12/16 15:00:55;;;;;;;0.90;0.65;;;;;;;28.66;79.32;103584.75;10452396;28;20407;-85
2023/12/16 15:05:58;;;;;;;1.52;0.70;;;;;;;27.69;79.49;103595.00;10432879;28;20072;-83
2023/12/16 15:11:17;;;;;;;;;;;;;;;26.50;80.52;103579.22;10453119;28;20500;-84
2023/12/16 15:16:19;;;;;;;0.55;0.40;;;;;;;27.11;81.93;103582.78;10459547;28;19971;-82
2023/12/16 15:21:22;;;;;;;0.75;0.55;;;;;;;28.65;77.78;103588.28;10450929;28;20041;-83
2023/12/16 15:26:24;;;;;;;1.35;0.68;;;;;;;28.39;78.94;103607.03;10470613;28;20076;-83
2023/12/16 15:31:28;;;;;;;1.73;0.57;;;;;;;27.92;79.95;103620.53;10425373;28;20112;-82
2023/12/16 15:36:30;;;;;;;0.45;0.45;;;;;;;28.74;77.82;103617.44;10441676;28;20100;-83
2023/12/16 15:41:31;;;;;;;3.45;1.25;;;;;;;27.97;79.37;103625.78;10427225;28;20057;-82
2023/12/16 15:46:38;;;;;;;0.75;0.25;;;;;;;28.92;78.17;103621.69;10450405;28;20049;-83
2023/12/16 15:51:40;;;;;;;1.33;0.85;;;;;;;29.36;77.37;103618.66;10427339;28;20136;-83
2023/12/16 15:56:42;;;;;;;0.93;0.60;;;;;;;27.38;81.01;103624.19;10453475;28;20049;-82
2023/12/16 16:01:44;;;;;;;1.38;0.95;;;;;;;29.49;77.71;103630.03;10425366;28;20392;-84
2023/12/16 16:06:46;;;;;;;0.98;0.82;;;;;;;29.08;78.98;103634.81;10444564;28;20619;-84
2023/12/16 16:11:48;;;;;;;0.80;0.60;;;;;;;28.06;78.99;103636.38;10418841;28;20056;-83
2023/12/16 16:16:50;;;;;;;2.92;0.82;;;;;;;27.82;80.32;103638.22;10439305;28;20040;-83
2023/12/16 16:21:52;;;;;;;2.17;1.38;;;;;;;27.59;81.92;103629.47;10453203;28;20041;-84
2023/12/16 16:26:53;;;;;;;1.33;0.85;;;;;;;28.33;79.66;103629.19;10452609;28;20051;-83
2023/12/16 16:31:55;;;;;;;0.90;0.90;;;;;;;26.35;82.78;103621.47;10460585;28;20115;-82
2023/12/16 16:37:00;;;;;;;0.73;0.57;;;;;;;27.90;82.91;103629.34;10451314;28;20083;-83
2023/12/16 16:42:03;;;;;;;0.65;0.65;;;;;;;26.25;83.44;103624.09;10448971;28;20569;-82
2023/12/16 16:47:05;;;;;;;1.33;0.73;;;;;;;27.29;83.61;103628.63;10457115;28;20052;-83
2023/12/16 16:52:06;;;;;;;1.27;0.88;;;;;;;26.12;86.81;103636.41;10451055;28;20075;-82
2023/12/16 16:57:08;;;;;;;3.47;0.75;;;;;;;28.33;81.14;103629.19;10460743;28;20080;-86
2023/12/16 17:02:11;;;;;;;2.03;1.08;;;;;;;28.32;81.65;103622.97;10439002;28;20150;-85
2023/12/16 17:07:13;;;;;;;2.15;1.15;;;;;;;27.35;83.96;103618.03;10436930;28;20044;-83
2023/12/16 17:12:16;;;;;;;0.47;0.35;;;;;;;27.48;83.81;103611.84;10457705;28;20044;-85
2023/12/16 17:17:18;;;;;;;4.32;1.70;;;;;;;27.43;83.77;103603.03;10457011;28;20073;-84
2023/12/16 17:22:20;;;;;;;3.60;1.88;;;;;;;27.21;83.44;103605.69;10432686;28;20079;-85
2023/12/16 17:27:22;;;;;;;2.08;0.88;;;;;;;28.16;81.90;103611.59;10452394;28;20073;-85
2023/12/16 17:32:25;;;;;;;8.18;1.38;;;;;;;28.21;81.15;103613.34;10436113;28;20063;-84
2023/12/16 17:37:27;;;;;;;1.67;1.05;;;;;;;27.42;83.54;103606.56;10450477;28;20470;-85
2023/12/16 17:42:29;;;;;;;2.17;1.20;;;;;;;26.68;84.25;103630.34;10448914;28;20049;-83
2023/12/16 17:47:32;;;;;;;0.73;0.68;;;;;;;27.24;85.37;103637.44;10437872;28;20046;-84
2023/12/16 17:52:34;;;;;;;2.75;1.00;;;;;;;27.52;83.19;103623.31;10450540;28;20091;-84
2023/12/16 17:57:36;;;;;;;2.17;1.23;;;;;;;28.80;83.26;103620.03;10448525;28;20466;-85
2023/12/16 18:02:38;;;;;;;0.70;0.30;;;;;;;28.66;82.22;103616.56;10417431;28;20044;-83
2023/12/16 18:07:40;;;;;;;4.80;1.90;;;;;;;26.57;82.58;103631.22;10443780;28;20057;-84
2023/12/16 18:12:42;;;;;;;1.65;0.65;;;;;;;27.55;86.09;103644.50;10453560;28;20044;-84
2023/12/16 18:17:44;;;;;;;1.45;1.10;;;;;;;27.82;84.47;103643.50;10446424;28;20044;-84
2023/12/16 18:22:46;;;;;;;2.20;1.00;;;;;;;26.03;84.89;103632.78;10446784;28;20506;-83
2023/12/16 18:27:48;;;;;;;2.35;0.70;;;;;;;28.46;82.27;103633.50;10456437;28;20131;-84
2023/12/16 18:32:50;;;;;;;2.45;1.35;;;;;;;26.49;85.96;103622.38;10449710;28;20047;-83
2023/12/16 18:37:52;;;;;;;1.52;0.80;;;;;;;27.16;85.50;103625.97;10442293;28;20447;-84
2023/12/16 18:42:55;;;;;;;1.73;1.20;;;;;;;27.02;86.04;103610.13;10457840;28;20071;-82
2023/12/16 18:47:56;;;;;;;1.85;1.02;;;;;;;27.52;85.84;103618.88;10444779;28;20044;-83
2023/12/16 18:52:58;;;;;;;1.45;1.33;;;;;;;27.39;84.38;103617.13;10434759;28;20203;-83
2023/12/16 18:58:01;;;;;;;2.25;1.35;;;;;;;28.01;86.09;103627.53;10437511;28;20095;-83
2023/12/16 19:03:03;;;;;;;3.97;1.50;;;;;;;27.60;83.38;103652.41;10449904;28;20418;-83
2023/12/16 19:08:06;;;;;;;1.58;1.00;;;;;;;26.30;89.19;103645.25;10442931;28;20049;-83
2023/12/16 19:13:08;;;;;;;1.48;1.27;;;;;;;29.02;83.70;103641.06;10458281;28;20061;-84
2023/12/16 19:18:10;;;;;;;0.88;0.77;;;;;;;28.34;84.07;103657.44;10437682;28;20475;-85
2023/12/16 19:23:12;;;;;;;1.80;1.45;;;;;;;27.78;85.67;103673.56;10450609;28;20498;-82
2023/12/16 19:28:14;;;;;;;2.20;2.03;;;;;;;27.96;86.29;103674.38;10441918;28;20041;-82
2023/12/16 19:33:15;;;;;;;1.60;1.17;;;;;;;27.09;88.14;103666.56;10445664;28;20061;-83
2023/12/16 19:38:18;;;;;;;10.40;2.50;;;;;;;27.44;85.22;103664.78;10446175;28;20120;-83
2023/12/16 19:43:20;;;;;;;2.30;1.52;;;;;;;27.09;87.07;103690.38;10447069;28;20060;-83
2023/12/16 19:48:22;;;;;;;1.75;1.20;;;;;;;28.37;85.05;103683.06;10457059;28;20048;-84
2023/12/16 19:53:24;;;;;;;3.63;1.77;;;;;;;26.78;87.87;103682.41;10446763;28;20048;-84
2023/12/16 19:58:26;;;;;;;3.08;1.40;;;;;;;28.81;82.56;103677.50;10463970;28;20051;-85
2023/12/16 20:03:28;;;;;;;0.68;0.45;;;;;;;27.93;84.60;103679.69;10455707;28;20052;-85
2023/12/16 20:08:31;;;;;;;2.15;1.63;;;;;;;27.45;84.93;103678.03;10470518;28;20515;-84
2023/12/16 20:13:34;;;;;;;1.25;1.05;;;;;;;28.00;84.81;103670.81;10445631;28;20132;-85
2023/12/16 20:18:36;;;;;;;4.32;0.98;;;;;;;27.08;88.18;103668.31;10443592;28;20140;-84
2023/12/16 20:23:38;;;;;;;3.65;2.53;;;;;;;26.74;88.58;103680.59;10456100;28;20029;-84
2023/12/16 20:28:40;;;;;;;9.43;2.10;;;;;;;25.98;91.96;103683.84;10436200;28;20522;-84
2023/12/16 20:33:41;;;;;;;4.35;2.42;;;;;;;27.12;90.65;103661.28;10447617;28;20053;-84
2023/12/16 20:44:04;;;;;;;;;;;;;;;27.15;89.04;103652.44;10456397;28;20073;-84
2023/12/16 20:49:05;;;;;;;2.85;1.17;;;;;;;28.20;88.97;103654.88;10471926;28;19947;-85
2023/12/16 20:54:07;;;;;;;3.10;1.55;;;;;;;26.65;89.70;103664.72;10455067;28;20041;-84
2023/12/16 20:59:09;;;;;;;2.65;1.38;;;;;;;26.86;91.89;103663.91;10458029;28;20051;-83
2023/12/16 21:04:12;;;;;;;2.78;1.58;;;;;;;27.90;89.05;103667.34;10454370;28;20052;-84
2023/12/16 21:09:14;;;;;;;1.65;1.13;;;;;;;26.75;91.50;103675.34;10433806;28;20102;-85
2023/12/16 21:14:16;;;;;;;2.35;1.50;;;;;;;27.96;88.52;103692.94;10425835;28;20140;-84
2023/12/16 21:19:17;;;;;;;1.88;1.50;;;;;;;27.64;89.49;103685.94;10449077;28;20044;-83
2023/12/16 21:24:19;;;;;;;1.63;1.23;;;;;;;27.45;87.87;103683.31;10474114;28;20045;-83
2023/12/16 21:29:21;;;;;;;2.30;1.48;;;;;;;28.46;88.16;103675.94;10446301;28;20045;-84
2023/12/16 21:34:23;;;;;;;2.60;1.33;;;;;;;28.63;87.48;103674.97;10451203;28;20069;-84
2023/12/16 21:39:26;;;;;;;1.45;1.23;;;;;;;28.41;87.60;103690.97;10458617;28;20056;-83
2023/12/16 21:44:27;;;;;;;1.20;1.05;;;;;;;28.94;84.85;103680.03;10436315;28;20528;-84
2023/12/16 21:49:29;;;;;;;1.02;0.60;;;;;;;27.72;87.62;103662.97;10432809;28;20077;-85
2023/12/16 21:54:31;;;;;;;1.48;1.00;;;;;;;26.81;89.61;103644.53;10431994;28;20054;-84
2023/12/16 21:59:33;;;;;;;4.18;1.50;;;;;;;27.32;89.47;103626.84;10458378;28;20120;-84
2023/12/16 22:04:35;;;;;;;2.83;1.27;;;;;;;28.89;86.66;103640.28;10436951;28;20072;-85
2023/12/16 22:09:37;;;;;;;3.72;2.00;;;;;;;28.42;87.49;103650.31;10444255;28;20040;-83
2023/12/16 22:14:38;;;;;;;2.50;1.55;;;;;;;27.26;88.86;103636.56;10433035;28;20474;-84
2023/12/16 22:19:52;;;;;;;0.40;0.15;;;;;;;26.55;92.12;103606.53;10430523;28;20126;-84
2023/12/16 22:24:54;;;;;;;2.88;1.00;;;;;;;25.38;96.57;103611.28;10443053;28;20044;-83
2023/12/16 22:29:58;;;;;;;1.13;0.50;;;;;;;26.67;94.12;103612.72;10445084;28;20036;-86
2023/12/16 22:35:00;;;;;;;1.00;0.80;;;;;;;25.92;98.94;103599.28;10438538;28;20041;-85
2023/12/16 22:40:03;;;;;;;0.95;0.65;;;;;;;27.67;92.09;103595.88;10430751;28;20396;-85
2023/12/16 22:45:06;;;;;;;1.70;1.35;;;;;;;27.20;92.58;103606.59;10448026;28;20040;-87
2023/12/16 22:50:08;;;;;;;3.15;1.27;;;;;;;27.24;94.43;103623.34;10445916;28;20477;-85
2023/12/16 22:55:11;;;;;;;1.65;0.82;;;;;;;27.33;90.50;103639.19;10446309;28;20041;-86
2023/12/16 23:00:46;;;;;;;2.53;0.55;;;;;;;27.28;91.57;103618.91;10457705;28;20041;-86
2023/12/16 23:05:42;;;;;;;1.30;1.05;;;;;;;27.89;89.72;103635.56;10441535;28;20056;-85
2023/12/16 23:10:44;;;;;;;0.45;0.38;;;;;;;26.87;91.07;103639.22;10461044;28;20037;-85
2023/12/16 23:15:46;;;;;;;1.33;1.08;;;;;;;28.37;88.06;103630.91;10442976;28;20064;-86